sensor_id;sensor_type;location;lat;lon;timestamp;P1;durP1;ratioP1;P2;durP2;ratioP2
52708;SDS011;38606;52.986;6.980;2022-08-02T00:00:22;12.23;;;4.35;;
52708;SDS011;38606;52.986;6.980;2022-08-02T00:02:48;9.45;;;3.70;;
52708;SDS011;38606;52.986;6.980;2022-08-02T00:05:13;7.80;;;3.80;;
52708;SDS011;38606;52.986;6.980;2022-08-02T00:07:39;11.75;;;3.60;;
52708;SDS011;38606;52.986;6.980;2022-08-02T00:10:06;11.50;;;3.80;;
52708;SDS011;38606;52.986;6.980;2022-08-02T00:12:33;11.90;;;3.72;;
52708;SDS011;38606;52.986;6.980;2022-08-02T00:14:59;16.83;;;4.93;;
52708;SDS011;38606;52.986;6.980;2022-08-02T00:17:25;8.15;;;3.72;;
52708;SDS011;38606;52.986;6.980;2022-08-02T00:19:50;7.25;;;3.80;;
52708;SDS011;38606;52.986;6.980;2022-08-02T00:22:16;7.47;;;3.67;;
52708;SDS011;38606;52.986;6.980;2022-08-02T00:24:42;12.93;;;3.75;;
52708;SDS011;38606;52.986;6.980;2022-08-02T00:27:07;8.68;;;3.83;;
52708;SDS011;38606;52.986;6.980;2022-08-02T00:29:34;6.43;;;3.65;;
52708;SDS011;38606;52.986;6.980;2022-08-02T00:32:00;8.80;;;3.67;;
52708;SDS011;38606;52.986;6.980;2022-08-02T00:34:26;9.57;;;4.40;;
52708;SDS011;38606;52.986;6.980;2022-08-02T00:36:52;7.60;;;3.90;;
52708;SDS011;38606;52.986;6.980;2022-08-02T00:39:18;16.83;;;5.50;;
52708;SDS011;38606;52.986;6.980;2022-08-02T00:41:47;8.48;;;4.70;;
52708;SDS011;38606;52.986;6.980;2022-08-02T00:44:14;8.93;;;4.55;;
52708;SDS011;38606;52.986;6.980;2022-08-02T00:46:41;7.95;;;4.22;;
52708;SDS011;38606;52.986;6.980;2022-08-02T00:49:07;11.02;;;4.50;;
52708;SDS011;38606;52.986;6.980;2022-08-02T00:51:33;10.10;;;4.35;;
52708;SDS011;38606;52.986;6.980;2022-08-02T00:53:59;9.45;;;4.75;;
52708;SDS011;38606;52.986;6.980;2022-08-02T00:56:25;9.40;;;4.70;;
52708;SDS011;38606;52.986;6.980;2022-08-02T00:58:51;13.18;;;5.60;;
52708;SDS011;38606;52.986;6.980;2022-08-02T01:01:16;11.05;;;5.40;;
52708;SDS011;38606;52.986;6.980;2022-08-02T01:03:42;8.43;;;5.15;;
52708;SDS011;38606;52.986;6.980;2022-08-02T01:06:08;11.63;;;6.00;;
52708;SDS011;38606;52.986;6.980;2022-08-02T01:08:36;13.02;;;5.00;;
52708;SDS011;38606;52.986;6.980;2022-08-02T01:11:02;9.82;;;5.22;;
52708;SDS011;38606;52.986;6.980;2022-08-02T01:13:28;8.63;;;5.30;;
52708;SDS011;38606;52.986;6.980;2022-08-02T01:15:57;9.50;;;4.40;;
52708;SDS011;38606;52.986;6.980;2022-08-02T01:18:33;10.13;;;4.90;;
52708;SDS011;38606;52.986;6.980;2022-08-02T01:34:15;8.57;;;4.72;;
52708;SDS011;38606;52.986;6.980;2022-08-02T01:36:43;7.80;;;4.55;;
52708;SDS011;38606;52.986;6.980;2022-08-02T01:39:13;9.30;;;4.60;;
52708;SDS011;38606;52.986;6.980;2022-08-02T01:41:43;11.18;;;4.72;;
52708;SDS011;38606;52.986;6.980;2022-08-02T01:44:11;12.15;;;4.47;;
52708;SDS011;38606;52.986;6.980;2022-08-02T01:46:40;10.43;;;5.25;;
52708;SDS011;38606;52.986;6.980;2022-08-02T01:49:09;9.45;;;4.72;;
52708;SDS011;38606;52.986;6.980;2022-08-02T01:51:38;11.18;;;4.97;;
52708;SDS011;38606;52.986;6.980;2022-08-02T01:54:25;11.18;;;5.32;;
52708;SDS011;38606;52.986;6.980;2022-08-02T01:56:56;11.55;;;5.85;;
52708;SDS011;38606;52.986;6.980;2022-08-02T01:59:25;13.35;;;5.50;;
52708;SDS011;38606;52.986;6.980;2022-08-02T02:01:53;10.23;;;5.30;;
52708;SDS011;38606;52.986;6.980;2022-08-02T02:04:21;12.35;;;5.45;;
52708;SDS011;38606;52.986;6.980;2022-08-02T02:06:49;8.70;;;5.40;;
52708;SDS011;38606;52.986;6.980;2022-08-02T02:09:16;10.52;;;4.75;;
52708;SDS011;38606;52.986;6.980;2022-08-02T02:11:44;8.68;;;5.13;;
52708;SDS011;38606;52.986;6.980;2022-08-02T02:14:11;9.95;;;4.65;;
52708;SDS011;38606;52.986;6.980;2022-08-02T02:16:39;13.50;;;5.18;;
52708;SDS011;38606;52.986;6.980;2022-08-02T02:19:08;10.77;;;5.40;;
52708;SDS011;38606;52.986;6.980;2022-08-02T02:21:36;9.98;;;5.30;;
52708;SDS011;38606;52.986;6.980;2022-08-02T02:24:02;15.65;;;5.60;;
52708;SDS011;38606;52.986;6.980;2022-08-02T02:26:28;7.20;;;5.20;;
52708;SDS011;38606;52.986;6.980;2022-08-02T02:28:56;16.17;;;5.45;;
52708;SDS011;38606;52.986;6.980;2022-08-02T02:31:26;9.75;;;5.05;;
52708;SDS011;38606;52.986;6.980;2022-08-02T02:34:01;9.55;;;4.93;;
52708;SDS011;38606;52.986;6.980;2022-08-02T02:36:40;11.52;;;5.40;;
52708;SDS011;38606;52.986;6.980;2022-08-02T02:39:10;10.75;;;5.53;;
52708;SDS011;38606;52.986;6.980;2022-08-02T02:41:37;11.98;;;5.57;;
52708;SDS011;38606;52.986;6.980;2022-08-02T02:44:04;11.88;;;5.53;;
52708;SDS011;38606;52.986;6.980;2022-08-02T02:46:34;15.65;;;5.45;;
52708;SDS011;38606;52.986;6.980;2022-08-02T02:49:00;11.40;;;5.78;;
52708;SDS011;38606;52.986;6.980;2022-08-02T02:51:27;10.73;;;4.97;;
52708;SDS011;38606;52.986;6.980;2022-08-02T02:53:53;15.88;;;5.30;;
52708;SDS011;38606;52.986;6.980;2022-08-02T02:56:20;8.75;;;5.13;;
52708;SDS011;38606;52.986;6.980;2022-08-02T02:58:46;10.68;;;5.10;;
52708;SDS011;38606;52.986;6.980;2022-08-02T03:01:12;11.45;;;4.65;;
52708;SDS011;38606;52.986;6.980;2022-08-02T03:04:01;8.38;;;4.75;;
52708;SDS011;38606;52.986;6.980;2022-08-02T03:06:32;12.00;;;4.97;;
52708;SDS011;38606;52.986;6.980;2022-08-02T03:09:00;10.98;;;5.60;;
52708;SDS011;38606;52.986;6.980;2022-08-02T03:11:26;11.02;;;4.80;;
52708;SDS011;38606;52.986;6.980;2022-08-02T03:14:03;13.40;;;5.13;;
52708;SDS011;38606;52.986;6.980;2022-08-02T03:16:32;9.48;;;5.03;;
52708;SDS011;38606;52.986;6.980;2022-08-02T03:19:00;12.40;;;5.63;;
52708;SDS011;38606;52.986;6.980;2022-08-02T03:21:27;11.93;;;5.10;;
52708;SDS011;38606;52.986;6.980;2022-08-02T03:23:53;10.13;;;5.70;;
52708;SDS011;38606;52.986;6.980;2022-08-02T03:26:19;16.10;;;5.55;;
52708;SDS011;38606;52.986;6.980;2022-08-02T03:28:45;11.05;;;4.68;;
52708;SDS011;38606;52.986;6.980;2022-08-02T03:31:11;12.45;;;5.47;;
52708;SDS011;38606;52.986;6.980;2022-08-02T03:33:36;18.73;;;6.15;;
52708;SDS011;38606;52.986;6.980;2022-08-02T03:36:13;14.88;;;5.55;;
52708;SDS011;38606;52.986;6.980;2022-08-02T03:38:41;14.82;;;5.65;;
52708;SDS011;38606;52.986;6.980;2022-08-02T03:41:09;12.57;;;5.28;;
52708;SDS011;38606;52.986;6.980;2022-08-02T03:43:37;11.18;;;5.78;;
52708;SDS011;38606;52.986;6.980;2022-08-02T03:46:04;17.38;;;5.93;;
52708;SDS011;38606;52.986;6.980;2022-08-02T03:48:32;14.68;;;5.35;;
52708;SDS011;38606;52.986;6.980;2022-08-02T03:50:59;18.38;;;5.53;;
52708;SDS011;38606;52.986;6.980;2022-08-02T03:53:25;18.23;;;6.22;;
52708;SDS011;38606;52.986;6.980;2022-08-02T03:55:52;12.82;;;5.50;;
52708;SDS011;38606;52.986;6.980;2022-08-02T03:58:18;12.65;;;5.60;;
52708;SDS011;38606;52.986;6.980;2022-08-02T04:00:45;14.02;;;5.40;;
52708;SDS011;38606;52.986;6.980;2022-08-02T04:03:12;12.68;;;5.63;;
52708;SDS011;38606;52.986;6.980;2022-08-02T04:05:38;13.48;;;5.70;;
52708;SDS011;38606;52.986;6.980;2022-08-02T04:08:04;11.18;;;5.45;;
52708;SDS011;38606;52.986;6.980;2022-08-02T04:10:30;13.43;;;5.30;;
52708;SDS011;38606;52.986;6.980;2022-08-02T04:12:55;21.85;;;5.93;;
52708;SDS011;38606;52.986;6.980;2022-08-02T04:15:22;9.85;;;5.28;;
52708;SDS011;38606;52.986;6.980;2022-08-02T04:17:53;17.60;;;5.38;;
52708;SDS011;38606;52.986;6.980;2022-08-02T04:20:21;11.57;;;5.15;;
52708;SDS011;38606;52.986;6.980;2022-08-02T04:23:08;16.45;;;6.18;;
52708;SDS011;38606;52.986;6.980;2022-08-02T04:25:38;14.60;;;5.38;;
52708;SDS011;38606;52.986;6.980;2022-08-02T04:28:05;12.15;;;5.90;;
52708;SDS011;38606;52.986;6.980;2022-08-02T04:30:32;15.43;;;5.38;;
52708;SDS011;38606;52.986;6.980;2022-08-02T04:32:58;14.30;;;5.43;;
52708;SDS011;38606;52.986;6.980;2022-08-02T04:35:24;12.02;;;5.75;;
52708;SDS011;38606;52.986;6.980;2022-08-02T04:37:50;17.17;;;6.30;;
52708;SDS011;38606;52.986;6.980;2022-08-02T04:40:17;13.27;;;6.45;;
52708;SDS011;38606;52.986;6.980;2022-08-02T04:42:42;14.00;;;5.47;;
52708;SDS011;38606;52.986;6.980;2022-08-02T04:45:08;15.23;;;5.80;;
52708;SDS011;38606;52.986;6.980;2022-08-02T04:47:35;12.63;;;5.00;;
52708;SDS011;38606;52.986;6.980;2022-08-02T04:50:01;12.23;;;5.25;;
52708;SDS011;38606;52.986;6.980;2022-08-02T04:52:27;12.98;;;5.30;;
52708;SDS011;38606;52.986;6.980;2022-08-02T04:54:52;9.60;;;5.07;;
52708;SDS011;38606;52.986;6.980;2022-08-02T04:57:19;13.45;;;5.25;;
52708;SDS011;38606;52.986;6.980;2022-08-02T05:00:04;13.15;;;5.72;;
52708;SDS011;38606;52.986;6.980;2022-08-02T05:02:32;15.88;;;5.78;;
52708;SDS011;38606;52.986;6.980;2022-08-02T05:04:58;16.77;;;5.25;;
52708;SDS011;38606;52.986;6.980;2022-08-02T05:07:23;13.60;;;5.15;;
52708;SDS011;38606;52.986;6.980;2022-08-02T05:09:49;9.60;;;5.53;;
52708;SDS011;38606;52.986;6.980;2022-08-02T05:12:15;13.98;;;5.20;;
52708;SDS011;38606;52.986;6.980;2022-08-02T05:14:40;13.73;;;5.63;;
52708;SDS011;38606;52.986;6.980;2022-08-02T05:17:06;15.60;;;6.15;;
52708;SDS011;38606;52.986;6.980;2022-08-02T05:19:32;16.00;;;5.70;;
52708;SDS011;38606;52.986;6.980;2022-08-02T05:21:58;15.73;;;5.97;;
52708;SDS011;38606;52.986;6.980;2022-08-02T05:24:23;12.95;;;5.90;;
52708;SDS011;38606;52.986;6.980;2022-08-02T05:26:49;12.20;;;6.40;;
52708;SDS011;38606;52.986;6.980;2022-08-02T05:29:15;12.93;;;6.50;;
52708;SDS011;38606;52.986;6.980;2022-08-02T05:31:41;13.93;;;6.15;;
52708;SDS011;38606;52.986;6.980;2022-08-02T05:34:07;15.63;;;6.38;;
52708;SDS011;38606;52.986;6.980;2022-08-02T05:36:33;14.52;;;5.75;;
52708;SDS011;38606;52.986;6.980;2022-08-02T05:38:58;16.13;;;5.47;;
52708;SDS011;38606;52.986;6.980;2022-08-02T05:41:24;14.50;;;6.13;;
52708;SDS011;38606;52.986;6.980;2022-08-02T05:43:50;13.88;;;6.13;;
52708;SDS011;38606;52.986;6.980;2022-08-02T05:46:15;14.63;;;5.68;;
52708;SDS011;38606;52.986;6.980;2022-08-02T05:48:41;16.85;;;6.53;;
52708;SDS011;38606;52.986;6.980;2022-08-02T05:51:14;11.27;;;5.72;;
52708;SDS011;38606;52.986;6.980;2022-08-02T06:07:39;11.93;;;5.50;;
52708;SDS011;38606;52.986;6.980;2022-08-02T06:10:07;11.15;;;5.53;;
52708;SDS011;38606;52.986;6.980;2022-08-02T06:12:37;13.15;;;5.38;;
52708;SDS011;38606;52.986;6.980;2022-08-02T06:15:25;13.32;;;5.68;;
52708;SDS011;38606;52.986;6.980;2022-08-02T06:17:51;9.45;;;5.13;;
52708;SDS011;38606;52.986;6.980;2022-08-02T06:20:17;11.15;;;5.20;;
52708;SDS011;38606;52.986;6.980;2022-08-02T06:22:44;11.05;;;4.57;;
52708;SDS011;38606;52.986;6.980;2022-08-02T06:25:11;9.07;;;4.65;;
52708;SDS011;38606;52.986;6.980;2022-08-02T06:27:38;9.85;;;4.72;;
52708;SDS011;38606;52.986;6.980;2022-08-02T06:30:06;7.97;;;4.80;;
52708;SDS011;38606;52.986;6.980;2022-08-02T06:32:33;13.38;;;4.90;;
52708;SDS011;38606;52.986;6.980;2022-08-02T06:35:00;9.95;;;4.32;;
52708;SDS011;38606;52.986;6.980;2022-08-02T06:37:37;14.80;;;5.45;;
52708;SDS011;38606;52.986;6.980;2022-08-02T06:45:43;14.82;;;4.55;;
52708;SDS011;38606;52.986;6.980;2022-08-02T06:48:09;11.88;;;4.63;;
52708;SDS011;38606;52.986;6.980;2022-08-02T06:50:35;12.02;;;4.38;;
52708;SDS011;38606;52.986;6.980;2022-08-02T06:53:06;8.75;;;4.43;;
52708;SDS011;38606;52.986;6.980;2022-08-02T06:55:32;11.98;;;3.80;;
52708;SDS011;38606;52.986;6.980;2022-08-02T06:57:58;9.40;;;4.00;;
52708;SDS011;38606;52.986;6.980;2022-08-02T07:00:24;7.75;;;3.85;;
52708;SDS011;38606;52.986;6.980;2022-08-02T07:02:50;15.82;;;4.15;;
52708;SDS011;38606;52.986;6.980;2022-08-02T07:05:17;8.93;;;3.90;;
52708;SDS011;38606;52.986;6.980;2022-08-02T07:07:43;7.78;;;4.03;;
52708;SDS011;38606;52.986;6.980;2022-08-02T07:10:10;7.85;;;3.60;;
52708;SDS011;38606;52.986;6.980;2022-08-02T07:12:37;10.68;;;4.20;;
52708;SDS011;38606;52.986;6.980;2022-08-02T07:15:04;12.50;;;3.63;;
52708;SDS011;38606;52.986;6.980;2022-08-02T07:17:31;10.35;;;3.63;;
52708;SDS011;38606;52.986;6.980;2022-08-02T07:19:58;7.13;;;3.63;;
52708;SDS011;38606;52.986;6.980;2022-08-02T07:22:24;9.52;;;3.83;;
52708;SDS011;38606;52.986;6.980;2022-08-02T07:24:51;9.40;;;3.25;;
52708;SDS011;38606;52.986;6.980;2022-08-02T07:27:18;8.57;;;3.40;;
52708;SDS011;38606;52.986;6.980;2022-08-02T07:29:45;12.07;;;3.35;;
52708;SDS011;38606;52.986;6.980;2022-08-02T07:32:10;7.15;;;3.40;;
52708;SDS011;38606;52.986;6.980;2022-08-02T07:34:36;7.35;;;3.00;;
52708;SDS011;38606;52.986;6.980;2022-08-02T07:37:02;10.55;;;3.33;;
52708;SDS011;38606;52.986;6.980;2022-08-02T07:39:28;6.65;;;2.90;;
52708;SDS011;38606;52.986;6.980;2022-08-02T07:41:53;11.48;;;2.80;;
52708;SDS011;38606;52.986;6.980;2022-08-02T07:44:19;6.93;;;2.65;;
52708;SDS011;38606;52.986;6.980;2022-08-02T07:46:46;7.45;;;3.17;;
52708;SDS011;38606;52.986;6.980;2022-08-02T07:49:11;7.53;;;2.60;;
52708;SDS011;38606;52.986;6.980;2022-08-02T07:51:45;4.95;;;2.55;;
52708;SDS011;38606;52.986;6.980;2022-08-02T07:54:11;8.10;;;2.15;;
52708;SDS011;38606;52.986;6.980;2022-08-02T07:56:37;8.45;;;2.50;;
52708;SDS011;38606;52.986;6.980;2022-08-02T07:59:03;8.57;;;2.65;;
52708;SDS011;38606;52.986;6.980;2022-08-02T08:01:29;5.28;;;2.08;;
52708;SDS011;38606;52.986;6.980;2022-08-02T08:03:55;4.65;;;2.38;;
52708;SDS011;38606;52.986;6.980;2022-08-02T08:06:21;6.72;;;2.10;;
52708;SDS011;38606;52.986;6.980;2022-08-02T08:08:47;4.95;;;1.50;;
52708;SDS011;38606;52.986;6.980;2022-08-02T08:11:12;5.03;;;1.90;;
52708;SDS011;38606;52.986;6.980;2022-08-02T08:13:38;4.47;;;1.27;;
52708;SDS011;38606;52.986;6.980;2022-08-02T08:16:04;5.82;;;1.45;;
52708;SDS011;38606;52.986;6.980;2022-08-02T08:18:30;3.88;;;1.40;;
52708;SDS011;38606;52.986;6.980;2022-08-02T08:20:59;4.90;;;1.48;;
52708;SDS011;38606;52.986;6.980;2022-08-02T08:23:24;5.13;;;1.95;;
52708;SDS011;38606;52.986;6.980;2022-08-02T08:25:50;7.47;;;1.88;;
52708;SDS011;38606;52.986;6.980;2022-08-02T08:28:16;2.70;;;1.77;;
52708;SDS011;38606;52.986;6.980;2022-08-02T08:30:41;4.72;;;1.60;;
52708;SDS011;38606;52.986;6.980;2022-08-02T08:33:08;4.15;;;1.58;;
52708;SDS011;38606;52.986;6.980;2022-08-02T08:35:33;7.72;;;1.40;;
52708;SDS011;38606;52.986;6.980;2022-08-02T08:37:59;4.28;;;1.40;;
52708;SDS011;38606;52.986;6.980;2022-08-02T08:40:25;3.08;;;1.10;;
52708;SDS011;38606;52.986;6.980;2022-08-02T08:42:51;4.05;;;1.20;;
52708;SDS011;38606;52.986;6.980;2022-08-02T08:45:17;4.15;;;1.10;;
52708;SDS011;38606;52.986;6.980;2022-08-02T08:47:43;2.92;;;1.10;;
52708;SDS011;38606;52.986;6.980;2022-08-02T08:50:17;2.60;;;1.00;;
52708;SDS011;38606;52.986;6.980;2022-08-02T08:55:27;2.22;;;0.95;;
52708;SDS011;38606;52.986;6.980;2022-08-02T08:57:54;3.15;;;1.00;;
52708;SDS011;38606;52.986;6.980;2022-08-02T09:00:22;2.55;;;1.10;;
52708;SDS011;38606;52.986;6.980;2022-08-02T09:02:48;3.92;;;0.93;;
52708;SDS011;38606;52.986;6.980;2022-08-02T09:05:15;3.30;;;0.98;;
52708;SDS011;38606;52.986;6.980;2022-08-02T09:07:41;3.97;;;1.13;;
52708;SDS011;38606;52.986;6.980;2022-08-02T09:13:08;2.50;;;0.98;;
52708;SDS011;38606;52.986;6.980;2022-08-02T09:15:40;1.73;;;0.85;;
52708;SDS011;38606;52.986;6.980;2022-08-02T09:18:06;1.70;;;1.00;;
52708;SDS011;38606;52.986;6.980;2022-08-02T09:20:33;3.35;;;1.05;;
52708;SDS011;38606;52.986;6.980;2022-08-02T09:23:07;3.70;;;1.00;;
52708;SDS011;38606;52.986;6.980;2022-08-02T09:25:34;6.75;;;1.00;;
52708;SDS011;38606;52.986;6.980;2022-08-02T09:28:01;3.22;;;1.17;;
52708;SDS011;38606;52.986;6.980;2022-08-02T09:30:30;3.30;;;1.40;;
52708;SDS011;38606;52.986;6.980;2022-08-02T09:32:56;8.75;;;1.10;;
52708;SDS011;38606;52.986;6.980;2022-08-02T09:35:33;2.45;;;1.10;;
52708;SDS011;38606;52.986;6.980;2022-08-02T09:38:12;2.42;;;0.90;;
52708;SDS011;38606;52.986;6.980;2022-08-02T09:40:39;3.15;;;1.20;;
52708;SDS011;38606;52.986;6.980;2022-08-02T09:43:06;5.53;;;1.17;;
52708;SDS011;38606;52.986;6.980;2022-08-02T09:45:33;5.05;;;1.20;;
52708;SDS011;38606;52.986;6.980;2022-08-02T09:48:00;3.53;;;1.20;;
52708;SDS011;38606;52.986;6.980;2022-08-02T09:50:27;5.28;;;1.30;;
52708;SDS011;38606;52.986;6.980;2022-08-02T09:52:54;1.83;;;1.13;;
52708;SDS011;38606;52.986;6.980;2022-08-02T09:55:21;3.63;;;1.33;;
52708;SDS011;38606;52.986;6.980;2022-08-02T09:57:46;2.08;;;1.15;;
52708;SDS011;38606;52.986;6.980;2022-08-02T10:00:12;4.05;;;1.85;;
52708;SDS011;38606;52.986;6.980;2022-08-02T10:02:38;4.40;;;1.40;;
52708;SDS011;38606;52.986;6.980;2022-08-02T10:05:04;3.75;;;1.42;;
52708;SDS011;38606;52.986;6.980;2022-08-02T10:07:30;5.45;;;2.03;;
52708;SDS011;38606;52.986;6.980;2022-08-02T10:09:56;3.10;;;1.20;;
52708;SDS011;38606;52.986;6.980;2022-08-02T10:12:22;3.00;;;1.20;;
52708;SDS011;38606;52.986;6.980;2022-08-02T10:14:49;5.60;;;1.70;;
52708;SDS011;38606;52.986;6.980;2022-08-02T10:17:16;5.72;;;1.45;;
52708;SDS011;38606;52.986;6.980;2022-08-02T10:19:46;4.65;;;1.52;;
52708;SDS011;38606;52.986;6.980;2022-08-02T10:22:12;4.45;;;1.42;;
52708;SDS011;38606;52.986;6.980;2022-08-02T10:24:39;5.32;;;1.30;;
52708;SDS011;38606;52.986;6.980;2022-08-02T10:27:06;5.88;;;1.63;;
52708;SDS011;38606;52.986;6.980;2022-08-02T10:29:39;6.35;;;1.85;;
52708;SDS011;38606;52.986;6.980;2022-08-02T10:32:08;2.70;;;1.50;;
52708;SDS011;38606;52.986;6.980;2022-08-02T10:37:27;5.25;;;1.30;;
52708;SDS011;38606;52.986;6.980;2022-08-02T10:39:56;5.25;;;1.50;;
52708;SDS011;38606;52.986;6.980;2022-08-02T10:45:09;4.10;;;1.70;;
52708;SDS011;38606;52.986;6.980;2022-08-02T10:47:55;4.35;;;1.45;;
52708;SDS011;38606;52.986;6.980;2022-08-02T10:50:33;9.30;;;1.58;;
52708;SDS011;38606;52.986;6.980;2022-08-02T10:55:54;3.95;;;1.50;;
52708;SDS011;38606;52.986;6.980;2022-08-02T10:58:23;6.25;;;1.60;;
52708;SDS011;38606;52.986;6.980;2022-08-02T11:00:55;5.60;;;2.17;;
52708;SDS011;38606;52.986;6.980;2022-08-02T11:06:05;4.50;;;2.28;;
52708;SDS011;38606;52.986;6.980;2022-08-02T11:08:34;4.50;;;1.83;;
52708;SDS011;38606;52.986;6.980;2022-08-02T11:19:20;6.97;;;2.33;;
52708;SDS011;38606;52.986;6.980;2022-08-02T11:22:00;5.82;;;2.40;;
52708;SDS011;38606;52.986;6.980;2022-08-02T11:24:29;3.20;;;2.17;;
52708;SDS011;38606;52.986;6.980;2022-08-02T11:26:59;4.22;;;2.40;;
52708;SDS011;38606;52.986;6.980;2022-08-02T11:29:37;4.88;;;1.98;;
52708;SDS011;38606;52.986;6.980;2022-08-02T11:32:04;6.47;;;2.42;;
52708;SDS011;38606;52.986;6.980;2022-08-02T11:34:41;4.32;;;1.90;;
52708;SDS011;38606;52.986;6.980;2022-08-02T11:37:09;4.75;;;2.40;;
52708;SDS011;38606;52.986;6.980;2022-08-02T11:39:35;3.53;;;2.15;;
52708;SDS011;38606;52.986;6.980;2022-08-02T11:42:01;5.20;;;2.22;;
52708;SDS011;38606;52.986;6.980;2022-08-02T11:44:28;5.25;;;2.20;;
52708;SDS011;38606;52.986;6.980;2022-08-02T11:47:04;8.38;;;2.50;;
52708;SDS011;38606;52.986;6.980;2022-08-02T11:49:31;5.63;;;2.17;;
52708;SDS011;38606;52.986;6.980;2022-08-02T11:51:58;4.30;;;2.20;;
52708;SDS011;38606;52.986;6.980;2022-08-02T11:57:12;7.32;;;2.22;;
52708;SDS011;38606;52.986;6.980;2022-08-02T11:59:45;4.38;;;2.20;;
52708;SDS011;38606;52.986;6.980;2022-08-02T12:02:22;3.38;;;2.22;;
52708;SDS011;38606;52.986;6.980;2022-08-02T12:05:03;3.45;;;2.15;;
52708;SDS011;38606;52.986;6.980;2022-08-02T12:07:32;2.75;;;1.98;;
52708;SDS011;38606;52.986;6.980;2022-08-02T12:09:59;5.07;;;2.13;;
52708;SDS011;38606;52.986;6.980;2022-08-02T12:12:26;3.58;;;1.92;;
52708;SDS011;38606;52.986;6.980;2022-08-02T12:14:52;3.85;;;1.90;;
52708;SDS011;38606;52.986;6.980;2022-08-02T12:17:22;6.80;;;1.77;;
52708;SDS011;38606;52.986;6.980;2022-08-02T12:20:07;4.50;;;1.77;;
52708;SDS011;38606;52.986;6.980;2022-08-02T12:22:33;3.70;;;1.70;;
52708;SDS011;38606;52.986;6.980;2022-08-02T12:25:13;4.63;;;2.20;;
52708;SDS011;38606;52.986;6.980;2022-08-02T12:27:46;3.65;;;2.03;;
52708;SDS011;38606;52.986;6.980;2022-08-02T12:30:14;5.10;;;2.05;;
52708;SDS011;38606;52.986;6.980;2022-08-02T12:32:41;6.72;;;1.80;;
52708;SDS011;38606;52.986;6.980;2022-08-02T12:37:34;3.03;;;1.60;;
52708;SDS011;38606;52.986;6.980;2022-08-02T12:42:51;3.30;;;1.95;;
52708;SDS011;38606;52.986;6.980;2022-08-02T12:45:18;6.95;;;2.35;;
52708;SDS011;38606;52.986;6.980;2022-08-02T12:47:48;6.93;;;2.20;;
52708;SDS011;38606;52.986;6.980;2022-08-02T12:50:18;6.45;;;2.53;;
52708;SDS011;38606;52.986;6.980;2022-08-02T12:53:10;3.58;;;2.03;;
52708;SDS011;38606;52.986;6.980;2022-08-02T12:55:48;5.53;;;1.60;;
52708;SDS011;38606;52.986;6.980;2022-08-02T12:58:16;3.70;;;1.35;;
52708;SDS011;38606;52.986;6.980;2022-08-02T13:00:42;1.75;;;1.40;;
52708;SDS011;38606;52.986;6.980;2022-08-02T13:03:25;3.47;;;1.25;;
52708;SDS011;38606;52.986;6.980;2022-08-02T13:05:52;2.05;;;1.27;;
52708;SDS011;38606;52.986;6.980;2022-08-02T13:08:17;4.20;;;1.20;;
52708;SDS011;38606;52.986;6.980;2022-08-02T13:10:43;2.83;;;1.35;;
52708;SDS011;38606;52.986;6.980;2022-08-02T13:13:09;1.95;;;1.40;;
52708;SDS011;38606;52.986;6.980;2022-08-02T13:15:35;2.35;;;1.55;;
52708;SDS011;38606;52.986;6.980;2022-08-02T13:18:02;3.33;;;1.60;;
52708;SDS011;38606;52.986;6.980;2022-08-02T13:20:28;3.65;;;2.03;;
52708;SDS011;38606;52.986;6.980;2022-08-02T13:22:54;3.78;;;1.70;;
52708;SDS011;38606;52.986;6.980;2022-08-02T13:25:20;4.78;;;2.20;;
52708;SDS011;38606;52.986;6.980;2022-08-02T13:27:50;3.45;;;1.90;;
52708;SDS011;38606;52.986;6.980;2022-08-02T13:30:16;2.78;;;1.90;;
52708;SDS011;38606;52.986;6.980;2022-08-02T13:32:43;3.80;;;1.95;;
52708;SDS011;38606;52.986;6.980;2022-08-02T13:35:09;4.72;;;2.08;;
52708;SDS011;38606;52.986;6.980;2022-08-02T13:37:35;2.53;;;1.73;;
52708;SDS011;38606;52.986;6.980;2022-08-02T13:40:01;4.55;;;1.83;;
52708;SDS011;38606;52.986;6.980;2022-08-02T13:42:27;3.30;;;2.00;;
52708;SDS011;38606;52.986;6.980;2022-08-02T13:44:53;4.90;;;1.80;;
52708;SDS011;38606;52.986;6.980;2022-08-02T13:47:19;4.82;;;1.92;;
52708;SDS011;38606;52.986;6.980;2022-08-02T13:49:44;2.92;;;1.90;;
52708;SDS011;38606;52.986;6.980;2022-08-02T13:52:10;4.85;;;1.58;;
52708;SDS011;38606;52.986;6.980;2022-08-02T13:54:36;3.72;;;1.67;;
52708;SDS011;38606;52.986;6.980;2022-08-02T13:57:02;2.67;;;1.90;;
52708;SDS011;38606;52.986;6.980;2022-08-02T13:59:28;4.75;;;2.08;;
52708;SDS011;38606;52.986;6.980;2022-08-02T14:01:54;3.25;;;1.98;;
52708;SDS011;38606;52.986;6.980;2022-08-02T14:04:21;3.00;;;1.55;;
52708;SDS011;38606;52.986;6.980;2022-08-02T14:06:47;2.58;;;1.80;;
52708;SDS011;38606;52.986;6.980;2022-08-02T14:09:13;4.00;;;1.63;;
52708;SDS011;38606;52.986;6.980;2022-08-02T14:11:38;3.92;;;1.90;;
52708;SDS011;38606;52.986;6.980;2022-08-02T14:14:04;2.08;;;1.73;;
52708;SDS011;38606;52.986;6.980;2022-08-02T14:16:30;1.83;;;1.70;;
52708;SDS011;38606;52.986;6.980;2022-08-02T14:18:55;3.22;;;1.50;;
52708;SDS011;38606;52.986;6.980;2022-08-02T14:21:21;3.58;;;1.75;;
52708;SDS011;38606;52.986;6.980;2022-08-02T14:23:47;3.30;;;1.63;;
52708;SDS011;38606;52.986;6.980;2022-08-02T14:26:13;2.80;;;1.70;;
52708;SDS011;38606;52.986;6.980;2022-08-02T14:28:38;3.25;;;2.08;;
52708;SDS011;38606;52.986;6.980;2022-08-02T14:31:04;5.25;;;2.15;;
52708;SDS011;38606;52.986;6.980;2022-08-02T14:33:30;4.38;;;1.90;;
52708;SDS011;38606;52.986;6.980;2022-08-02T14:35:55;5.18;;;1.92;;
52708;SDS011;38606;52.986;6.980;2022-08-02T14:38:24;2.10;;;1.80;;
52708;SDS011;38606;52.986;6.980;2022-08-02T14:40:50;4.28;;;2.30;;
52708;SDS011;38606;52.986;6.980;2022-08-02T14:43:15;2.88;;;2.00;;
52708;SDS011;38606;52.986;6.980;2022-08-02T14:46:00;2.67;;;2.00;;
52708;SDS011;38606;52.986;6.980;2022-08-02T14:48:27;4.07;;;2.30;;
52708;SDS011;38606;52.986;6.980;2022-08-02T14:50:53;5.28;;;2.35;;
52708;SDS011;38606;52.986;6.980;2022-08-02T14:53:19;3.58;;;2.42;;
52708;SDS011;38606;52.986;6.980;2022-08-02T14:55:44;4.28;;;2.45;;
52708;SDS011;38606;52.986;6.980;2022-08-02T14:58:10;4.80;;;2.72;;
52708;SDS011;38606;52.986;6.980;2022-08-02T15:00:36;6.00;;;2.75;;
52708;SDS011;38606;52.986;6.980;2022-08-02T15:03:03;3.38;;;2.65;;
52708;SDS011;38606;52.986;6.980;2022-08-02T15:05:29;4.28;;;2.58;;
52708;SDS011;38606;52.986;6.980;2022-08-02T15:07:54;6.75;;;2.70;;
52708;SDS011;38606;52.986;6.980;2022-08-02T15:10:20;5.07;;;2.95;;
52708;SDS011;38606;52.986;6.980;2022-08-02T15:12:46;4.65;;;2.50;;
52708;SDS011;38606;52.986;6.980;2022-08-02T15:15:12;5.70;;;2.97;;
52708;SDS011;38606;52.986;6.980;2022-08-02T15:17:37;5.35;;;2.78;;
52708;SDS011;38606;52.986;6.980;2022-08-02T15:20:03;4.38;;;2.90;;
52708;SDS011;38606;52.986;6.980;2022-08-02T15:22:29;5.40;;;3.20;;
52708;SDS011;38606;52.986;6.980;2022-08-02T15:24:55;5.50;;;2.70;;
52708;SDS011;38606;52.986;6.980;2022-08-02T15:27:21;5.68;;;2.85;;
52708;SDS011;38606;52.986;6.980;2022-08-02T15:29:47;3.55;;;2.70;;
52708;SDS011;38606;52.986;6.980;2022-08-02T15:32:13;9.40;;;3.60;;
52708;SDS011;38606;52.986;6.980;2022-08-02T15:34:42;4.82;;;2.83;;
52708;SDS011;38606;52.986;6.980;2022-08-02T15:37:08;5.35;;;2.83;;
52708;SDS011;38606;52.986;6.980;2022-08-02T15:39:34;6.00;;;2.67;;
52708;SDS011;38606;52.986;6.980;2022-08-02T15:42:00;4.57;;;3.08;;
52708;SDS011;38606;52.986;6.980;2022-08-02T15:44:27;5.82;;;2.70;;
52708;SDS011;38606;52.986;6.980;2022-08-02T15:46:53;4.18;;;2.60;;
52708;SDS011;38606;52.986;6.980;2022-08-02T15:49:19;5.32;;;2.92;;
52708;SDS011;38606;52.986;6.980;2022-08-02T15:51:47;5.10;;;2.80;;